Tropical Cyclones
[Index]
Main Index Home Page Stock Weather Photos Extreme Storms Discussion Storm News and Storm Chasing Reports Tropical Cyclones / Hurricanes / Typhoons Weather Data and Links Wild Fires / Bushfires Weather Observation Techniques Weather Picture Catalogue Tornado Pictures and Reports Stock Video Footage and DVDs for sale
Season 1991-1992 Tropical Cyclone VAL Track Map
Season 1991-1992 Summaries: [BoM-AU] [JTWC-AU] [JTWC-SIO] [JTWC-SPAC] [JTWC-SH]
<<- Previous TC | JTWC 1991-1992 Season | Next TC ->>

click for intensity scale information  Lat/long Grid: Show Hide

 Date Labels: Show Hide

Joint Typhoon Warning Centre Cyclone Data

Name: VAL

04 Dec 1991 06:00 UTC to 13 Dec 1991 12:00 UTC

    date/time    lat    long     hPa   cat  kts
1991-12-04 06    8.4   179.5W                 30          
1991-12-04 12    8.7   179.3W                 30          
1991-12-04 18    9.0   179.0W                 35          
1991-12-05 00    9.1   178.6W           1     40          
1991-12-05 06    9.2   178.1W           1     45          
1991-12-05 12    9.3   177.5W           1     50          
1991-12-05 18    9.4   176.8W           2     55          
1991-12-06 00    9.5   176.0W           2     60          
1991-12-06 06    9.9   175.2W           2     65          
1991-12-06 12   10.5   174.5W           3     75          
1991-12-06 18   11.3   174.2W           3     85          
1991-12-07 00   11.9   173.8W           4    100          
1991-12-07 06   12.3   173.5W           4    110          
1991-12-07 12   12.8   173.0W           4    115          
1991-12-07 18   13.3   172.7W           4    120          
1991-12-08 00   13.8   172.5W           5    125          
1991-12-08 06   14.0   172.4W           5    125          
1991-12-08 12   14.2   172.4W           4    120          
1991-12-08 18   14.4   172.5W           4    115          
1991-12-09 00   14.3   172.7W           4    110          
1991-12-09 06   14.1   172.4W           4    105          
1991-12-09 12   14.1   171.9W           4    100          
1991-12-09 18   14.2   171.5W           3     95          
1991-12-10 00   14.3   170.9W           3     90          
1991-12-10 06   14.4   170.4W           3     90          
1991-12-10 12   14.7   169.7W           3     85          
1991-12-10 18   15.1   168.9W           3     85          
1991-12-11 00   15.8   168.1W           3     85          
1991-12-11 06   16.6   167.2W           3     80          
1991-12-11 12   17.7   166.3W           3     80          
1991-12-11 18   18.9   165.4W           3     75          
1991-12-12 00   20.2   164.5W           2     70          
1991-12-12 06   21.7   163.7W           2     65          
1991-12-12 12   23.6   163.1W           2     60          
1991-12-12 18   26.0   162.5W           2     55          
1991-12-13 00   28.5   160.6W           1     50          
1991-12-13 06   29.6   156.5W           1     45          
1991-12-13 12   29.7   151.5W           1     40          
Winds are 1-min average.

Tropical cyclone tracks developed by Michael Bath using data from the Joint Typhoon Warning Centre Best Tracks and Google Maps.


[Australian Severe Weather index] [Copyright Notice] [Email Contacts] [Search This Site] [Privacy Policy]
Document: tropical_cyclone_val.htm Updated: 18 September 2016